sensor_id;sensor_type;location;lat;lon;timestamp;temperature;humidity
3816;DHT22;1923;48.154;11.536;2023-02-28T00:01:12;-1.40;99.90
3816;DHT22;1923;48.154;11.536;2023-02-28T00:03:42;-1.60;99.90
3816;DHT22;1923;48.154;11.536;2023-02-28T00:06:10;-1.50;99.90
3816;DHT22;1923;48.154;11.536;2023-02-28T00:08:38;-1.50;99.90
3816;DHT22;1923;48.154;11.536;2023-02-28T00:11:09;-1.60;99.90
3816;DHT22;1923;48.154;11.536;2023-02-28T00:13:40;-1.70;99.90
3816;DHT22;1923;48.154;11.536;2023-02-28T00:16:12;-1.50;99.90
3816;DHT22;1923;48.154;11.536;2023-02-28T00:18:41;-1.60;99.90
3816;DHT22;1923;48.154;11.536;2023-02-28T00:21:09;-1.60;99.90
3816;DHT22;1923;48.154;11.536;2023-02-28T00:23:37;-1.60;99.90
3816;DHT22;1923;48.154;11.536;2023-02-28T00:26:06;-1.60;99.90
3816;DHT22;1923;48.154;11.536;2023-02-28T00:28:34;-1.40;99.90
3816;DHT22;1923;48.154;11.536;2023-02-28T00:31:03;-1.40;99.90
3816;DHT22;1923;48.154;11.536;2023-02-28T00:33:32;-1.40;99.90
3816;DHT22;1923;48.154;11.536;2023-02-28T00:36:05;-1.50;99.90
3816;DHT22;1923;48.154;11.536;2023-02-28T00:38:34;-1.40;99.90
3816;DHT22;1923;48.154;11.536;2023-02-28T00:41:02;-1.40;99.90
3816;DHT22;1923;48.154;11.536;2023-02-28T00:43:32;-1.40;99.90
3816;DHT22;1923;48.154;11.536;2023-02-28T00:46:01;-1.60;99.90
3816;DHT22;1923;48.154;11.536;2023-02-28T00:48:31;-1.70;99.90
3816;DHT22;1923;48.154;11.536;2023-02-28T00:50:59;-1.70;99.90
3816;DHT22;1923;48.154;11.536;2023-02-28T00:53:28;-1.70;99.90
3816;DHT22;1923;48.154;11.536;2023-02-28T00:55:56;-1.70;99.90
3816;DHT22;1923;48.154;11.536;2023-02-28T00:58:25;-1.50;99.90
3816;DHT22;1923;48.154;11.536;2023-02-28T01:00:53;-1.60;99.90
3816;DHT22;1923;48.154;11.536;2023-02-28T01:03:23;-1.50;99.90
3816;DHT22;1923;48.154;11.536;2023-02-28T01:05:53;-1.60;99.90
3816;DHT22;1923;48.154;11.536;2023-02-28T01:08:21;-1.70;99.90
3816;DHT22;1923;48.154;11.536;2023-02-28T01:10:49;-1.60;99.90
3816;DHT22;1923;48.154;11.536;2023-02-28T01:13:18;-1.70;99.90
3816;DHT22;1923;48.154;11.536;2023-02-28T01:15:50;-1.70;99.90
3816;DHT22;1923;48.154;11.536;2023-02-28T01:18:19;-1.80;99.90
3816;DHT22;1923;48.154;11.536;2023-02-28T01:20:47;-1.90;99.90
3816;DHT22;1923;48.154;11.536;2023-02-28T01:23:17;-1.90;99.90
3816;DHT22;1923;48.154;11.536;2023-02-28T01:25:45;-2.00;99.90
3816;DHT22;1923;48.154;11.536;2023-02-28T01:28:13;-2.00;99.90
3816;DHT22;1923;48.154;11.536;2023-02-28T01:30:41;-2.00;99.90
3816;DHT22;1923;48.154;11.536;2023-02-28T01:33:09;-1.80;99.90
3816;DHT22;1923;48.154;11.536;2023-02-28T01:35:37;-1.70;99.90
3816;DHT22;1923;48.154;11.536;2023-02-28T01:38:05;-1.70;99.90
3816;DHT22;1923;48.154;11.536;2023-02-28T01:40:49;-1.60;99.90
3816;DHT22;1923;48.154;11.536;2023-02-28T01:43:21;-1.70;99.90
3816;DHT22;1923;48.154;11.536;2023-02-28T01:45:50;-1.90;99.90
3816;DHT22;1923;48.154;11.536;2023-02-28T01:48:19;-2.00;99.90
3816;DHT22;1923;48.154;11.536;2023-02-28T01:50:49;-2.10;99.90
3816;DHT22;1923;48.154;11.536;2023-02-28T01:53:21;-2.00;99.90
3816;DHT22;1923;48.154;11.536;2023-02-28T01:55:53;-1.90;99.90
3816;DHT22;1923;48.154;11.536;2023-02-28T01:58:22;-2.00;99.90
3816;DHT22;1923;48.154;11.536;2023-02-28T02:00:50;-2.20;99.90
3816;DHT22;1923;48.154;11.536;2023-02-28T02:03:20;-2.20;99.90
3816;DHT22;1923;48.154;11.536;2023-02-28T02:05:48;-2.20;99.90
3816;DHT22;1923;48.154;11.536;2023-02-28T02:08:19;-2.20;99.90
3816;DHT22;1923;48.154;11.536;2023-02-28T02:10:50;-2.20;99.90
3816;DHT22;1923;48.154;11.536;2023-02-28T02:13:38;-2.20;99.90
3816;DHT22;1923;48.154;11.536;2023-02-28T02:16:20;-2.20;99.90
3816;DHT22;1923;48.154;11.536;2023-02-28T02:18:53;-2.30;99.90
3816;DHT22;1923;48.154;11.536;2023-02-28T02:21:47;-2.20;99.90
3816;DHT22;1923;48.154;11.536;2023-02-28T02:24:48;-2.20;99.90
3816;DHT22;1923;48.154;11.536;2023-02-28T02:27:23;-2.20;99.90
3816;DHT22;1923;48.154;11.536;2023-02-28T02:30:27;-2.10;99.90
3816;DHT22;1923;48.154;11.536;2023-02-28T02:36:11;-2.20;99.90
3816;DHT22;1923;48.154;11.536;2023-02-28T02:38:45;-2.20;99.90
3816;DHT22;1923;48.154;11.536;2023-02-28T02:41:18;-2.30;99.90
3816;DHT22;1923;48.154;11.536;2023-02-28T02:43:51;-2.30;99.90
3816;DHT22;1923;48.154;11.536;2023-02-28T02:46:22;-2.30;99.90
3816;DHT22;1923;48.154;11.536;2023-02-28T02:48:52;-2.30;99.90
3816;DHT22;1923;48.154;11.536;2023-02-28T02:51:24;-2.30;99.90
3816;DHT22;1923;48.154;11.536;2023-02-28T02:53:57;-2.30;99.90
3816;DHT22;1923;48.154;11.536;2023-02-28T02:56:30;-2.30;99.90
3816;DHT22;1923;48.154;11.536;2023-02-28T02:59:06;-2.30;99.90
3816;DHT22;1923;48.154;11.536;2023-02-28T03:01:36;-2.40;99.90
3816;DHT22;1923;48.154;11.536;2023-02-28T03:04:08;-2.50;99.90
3816;DHT22;1923;48.154;11.536;2023-02-28T03:06:38;-2.50;99.90
3816;DHT22;1923;48.154;11.536;2023-02-28T03:09:06;-2.50;99.90
3816;DHT22;1923;48.154;11.536;2023-02-28T03:11:35;-2.60;99.90
3816;DHT22;1923;48.154;11.536;2023-02-28T03:14:25;-2.60;99.90
3816;DHT22;1923;48.154;11.536;2023-02-28T03:17:15;-2.40;99.90
3816;DHT22;1923;48.154;11.536;2023-02-28T03:19:55;-2.40;99.90
3816;DHT22;1923;48.154;11.536;2023-02-28T03:22:40;-2.40;99.90
3816;DHT22;1923;48.154;11.536;2023-02-28T03:25:17;-2.30;99.90
3816;DHT22;1923;48.154;11.536;2023-02-28T03:27:54;-2.40;99.90
3816;DHT22;1923;48.154;11.536;2023-02-28T03:30:28;-2.40;99.90
3816;DHT22;1923;48.154;11.536;2023-02-28T03:33:03;-2.40;99.90
3816;DHT22;1923;48.154;11.536;2023-02-28T03:35:37;-2.40;99.90
3816;DHT22;1923;48.154;11.536;2023-02-28T03:38:12;-2.40;99.90
3816;DHT22;1923;48.154;11.536;2023-02-28T03:40:44;-2.40;99.90
3816;DHT22;1923;48.154;11.536;2023-02-28T03:43:19;-2.50;99.90
3816;DHT22;1923;48.154;11.536;2023-02-28T03:45:56;-2.40;99.90
3816;DHT22;1923;48.154;11.536;2023-02-28T03:48:31;-2.50;99.90
3816;DHT22;1923;48.154;11.536;2023-02-28T03:51:01;-2.50;99.90
3816;DHT22;1923;48.154;11.536;2023-02-28T03:53:33;-2.40;99.90
3816;DHT22;1923;48.154;11.536;2023-02-28T03:56:07;-2.40;99.90
3816;DHT22;1923;48.154;11.536;2023-02-28T03:58:40;-2.30;99.90
3816;DHT22;1923;48.154;11.536;2023-02-28T04:01:12;-2.20;99.90
3816;DHT22;1923;48.154;11.536;2023-02-28T04:03:43;-2.30;99.90
3816;DHT22;1923;48.154;11.536;2023-02-28T04:06:15;-2.20;99.90
3816;DHT22;1923;48.154;11.536;2023-02-28T04:08:46;-2.30;99.90
3816;DHT22;1923;48.154;11.536;2023-02-28T04:11:20;-2.10;99.90
3816;DHT22;1923;48.154;11.536;2023-02-28T04:13:49;-2.20;99.90
3816;DHT22;1923;48.154;11.536;2023-02-28T04:16:17;-2.10;99.90
3816;DHT22;1923;48.154;11.536;2023-02-28T04:19:01;-2.10;99.90
3816;DHT22;1923;48.154;11.536;2023-02-28T04:21:33;-2.10;99.90
3816;DHT22;1923;48.154;11.536;2023-02-28T04:24:04;-2.10;99.90
3816;DHT22;1923;48.154;11.536;2023-02-28T04:26:34;-2.20;99.90
3816;DHT22;1923;48.154;11.536;2023-02-28T04:29:04;-2.20;99.90
3816;DHT22;1923;48.154;11.536;2023-02-28T04:31:32;-2.20;99.90
3816;DHT22;1923;48.154;11.536;2023-02-28T04:34:00;-2.20;99.90
3816;DHT22;1923;48.154;11.536;2023-02-28T04:36:29;-2.10;99.90
3816;DHT22;1923;48.154;11.536;2023-02-28T04:38:57;-2.00;99.90
3816;DHT22;1923;48.154;11.536;2023-02-28T04:41:26;-1.90;99.90
3816;DHT22;1923;48.154;11.536;2023-02-28T04:43:58;-1.80;99.90
3816;DHT22;1923;48.154;11.536;2023-02-28T04:46:26;-1.80;99.90
3816;DHT22;1923;48.154;11.536;2023-02-28T04:48:54;-1.80;99.90
3816;DHT22;1923;48.154;11.536;2023-02-28T04:51:22;-1.70;99.90
3816;DHT22;1923;48.154;11.536;2023-02-28T04:53:50;-1.70;99.90
3816;DHT22;1923;48.154;11.536;2023-02-28T04:56:19;-1.70;99.90
3816;DHT22;1923;48.154;11.536;2023-02-28T04:58:48;-1.70;99.90
3816;DHT22;1923;48.154;11.536;2023-02-28T05:01:21;-1.60;99.90
3816;DHT22;1923;48.154;11.536;2023-02-28T05:03:50;-1.60;99.90
3816;DHT22;1923;48.154;11.536;2023-02-28T05:06:19;-1.70;99.90
3816;DHT22;1923;48.154;11.536;2023-02-28T05:08:47;-1.70;99.90
3816;DHT22;1923;48.154;11.536;2023-02-28T05:11:18;-1.70;99.90
3816;DHT22;1923;48.154;11.536;2023-02-28T05:13:49;-1.60;99.90
3816;DHT22;1923;48.154;11.536;2023-02-28T05:16:18;-1.60;99.90
3816;DHT22;1923;48.154;11.536;2023-02-28T05:18:47;-1.50;99.90
3816;DHT22;1923;48.154;11.536;2023-02-28T05:21:26;-1.40;99.90
3816;DHT22;1923;48.154;11.536;2023-02-28T05:23:57;-1.40;99.90
3816;DHT22;1923;48.154;11.536;2023-02-28T05:26:26;-1.70;99.90
3816;DHT22;1923;48.154;11.536;2023-02-28T05:28:56;-1.70;99.90
3816;DHT22;1923;48.154;11.536;2023-02-28T05:31:24;-1.70;99.90
3816;DHT22;1923;48.154;11.536;2023-02-28T05:33:52;-1.70;99.90
3816;DHT22;1923;48.154;11.536;2023-02-28T05:36:21;-1.70;99.90
3816;DHT22;1923;48.154;11.536;2023-02-28T05:38:49;-1.80;99.90
3816;DHT22;1923;48.154;11.536;2023-02-28T05:41:18;-1.70;99.90
3816;DHT22;1923;48.154;11.536;2023-02-28T05:43:47;-1.80;99.90
3816;DHT22;1923;48.154;11.536;2023-02-28T05:46:16;-1.70;99.90
3816;DHT22;1923;48.154;11.536;2023-02-28T05:48:48;-1.50;99.90
3816;DHT22;1923;48.154;11.536;2023-02-28T05:51:17;-1.60;99.90
3816;DHT22;1923;48.154;11.536;2023-02-28T05:53:45;-1.50;99.90
3816;DHT22;1923;48.154;11.536;2023-02-28T05:56:14;-1.50;99.90
3816;DHT22;1923;48.154;11.536;2023-02-28T05:58:43;-1.40;99.90
3816;DHT22;1923;48.154;11.536;2023-02-28T06:01:24;-1.30;99.90
3816;DHT22;1923;48.154;11.536;2023-02-28T06:03:56;-1.40;99.90
3816;DHT22;1923;48.154;11.536;2023-02-28T06:06:24;-1.50;99.90
3816;DHT22;1923;48.154;11.536;2023-02-28T06:08:52;-1.20;99.90
3816;DHT22;1923;48.154;11.536;2023-02-28T06:11:20;-1.20;99.90
3816;DHT22;1923;48.154;11.536;2023-02-28T06:13:55;-1.20;99.90
3816;DHT22;1923;48.154;11.536;2023-02-28T06:16:25;-1.40;99.90
3816;DHT22;1923;48.154;11.536;2023-02-28T06:18:54;-1.30;99.90
3816;DHT22;1923;48.154;11.536;2023-02-28T06:21:23;-1.30;99.90
3816;DHT22;1923;48.154;11.536;2023-02-28T06:23:51;-1.40;99.90
3816;DHT22;1923;48.154;11.536;2023-02-28T06:26:19;-1.40;99.90
3816;DHT22;1923;48.154;11.536;2023-02-28T06:28:48;-1.40;99.90
3816;DHT22;1923;48.154;11.536;2023-02-28T06:31:17;-1.40;99.90
3816;DHT22;1923;48.154;11.536;2023-02-28T06:33:47;-1.40;99.90
3816;DHT22;1923;48.154;11.536;2023-02-28T06:36:16;-1.40;99.90
3816;DHT22;1923;48.154;11.536;2023-02-28T06:38:44;-1.50;99.90
3816;DHT22;1923;48.154;11.536;2023-02-28T06:41:12;-1.40;99.90
3816;DHT22;1923;48.154;11.536;2023-02-28T06:43:41;-1.40;99.90
3816;DHT22;1923;48.154;11.536;2023-02-28T06:46:12;-1.40;99.90
3816;DHT22;1923;48.154;11.536;2023-02-28T06:48:40;-1.50;99.90
3816;DHT22;1923;48.154;11.536;2023-02-28T06:51:11;-1.50;99.90
3816;DHT22;1923;48.154;11.536;2023-02-28T06:53:40;-1.50;99.90
3816;DHT22;1923;48.154;11.536;2023-02-28T06:56:13;-1.60;99.90
3816;DHT22;1923;48.154;11.536;2023-02-28T06:58:45;-1.50;99.90
3816;DHT22;1923;48.154;11.536;2023-02-28T07:01:13;-1.40;99.90
3816;DHT22;1923;48.154;11.536;2023-02-28T07:03:42;-1.40;99.90
3816;DHT22;1923;48.154;11.536;2023-02-28T07:06:12;-1.30;99.90
3816;DHT22;1923;48.154;11.536;2023-02-28T07:08:39;-1.30;99.90
3816;DHT22;1923;48.154;11.536;2023-02-28T07:11:08;-1.30;99.90
3816;DHT22;1923;48.154;11.536;2023-02-28T07:13:36;-1.20;99.90
3816;DHT22;1923;48.154;11.536;2023-02-28T07:16:07;-1.20;99.90
3816;DHT22;1923;48.154;11.536;2023-02-28T07:18:37;-1.20;99.90
3816;DHT22;1923;48.154;11.536;2023-02-28T07:21:09;-1.20;99.90
3816;DHT22;1923;48.154;11.536;2023-02-28T07:23:39;-1.10;99.90
3816;DHT22;1923;48.154;11.536;2023-02-28T07:26:11;-1.20;99.90
3816;DHT22;1923;48.154;11.536;2023-02-28T07:28:41;-1.10;99.90
3816;DHT22;1923;48.154;11.536;2023-02-28T07:31:10;-1.00;99.90
3816;DHT22;1923;48.154;11.536;2023-02-28T07:33:38;-1.00;99.90
3816;DHT22;1923;48.154;11.536;2023-02-28T07:36:08;-1.00;99.90
3816;DHT22;1923;48.154;11.536;2023-02-28T07:38:43;-1.10;99.90
3816;DHT22;1923;48.154;11.536;2023-02-28T07:41:14;-1.10;99.90
3816;DHT22;1923;48.154;11.536;2023-02-28T07:43:42;-1.10;99.90
3816;DHT22;1923;48.154;11.536;2023-02-28T07:46:12;-1.20;99.90
3816;DHT22;1923;48.154;11.536;2023-02-28T07:48:42;-1.20;99.90
3816;DHT22;1923;48.154;11.536;2023-02-28T07:51:10;-1.20;99.90
3816;DHT22;1923;48.154;11.536;2023-02-28T07:53:39;-1.20;99.90
3816;DHT22;1923;48.154;11.536;2023-02-28T07:56:08;-1.20;99.90
3816;DHT22;1923;48.154;11.536;2023-02-28T07:58:37;-1.00;99.90
3816;DHT22;1923;48.154;11.536;2023-02-28T08:01:06;-1.20;99.90
3816;DHT22;1923;48.154;11.536;2023-02-28T08:03:34;-1.20;99.90
3816;DHT22;1923;48.154;11.536;2023-02-28T08:06:03;-1.20;99.90
3816;DHT22;1923;48.154;11.536;2023-02-28T08:08:31;-1.30;99.90
3816;DHT22;1923;48.154;11.536;2023-02-28T08:10:59;-1.30;99.90
3816;DHT22;1923;48.154;11.536;2023-02-28T08:13:30;-1.20;99.90
3816;DHT22;1923;48.154;11.536;2023-02-28T08:15:58;-1.00;99.90
3816;DHT22;1923;48.154;11.536;2023-02-28T08:18:26;-0.90;99.90
3816;DHT22;1923;48.154;11.536;2023-02-28T08:20:54;-0.80;99.90
3816;DHT22;1923;48.154;11.536;2023-02-28T08:23:22;-0.80;99.90
3816;DHT22;1923;48.154;11.536;2023-02-28T08:25:53;-0.90;99.90
3816;DHT22;1923;48.154;11.536;2023-02-28T08:28:22;-0.90;99.90
3816;DHT22;1923;48.154;11.536;2023-02-28T08:30:54;-0.80;99.90
3816;DHT22;1923;48.154;11.536;2023-02-28T08:33:22;-0.70;99.90
3816;DHT22;1923;48.154;11.536;2023-02-28T08:35:53;-0.60;99.90
3816;DHT22;1923;48.154;11.536;2023-02-28T08:38:22;-0.50;99.90
3816;DHT22;1923;48.154;11.536;2023-02-28T08:40:57;-0.60;99.90
3816;DHT22;1923;48.154;11.536;2023-02-28T08:43:25;-0.50;99.90
3816;DHT22;1923;48.154;11.536;2023-02-28T08:45:55;-0.50;99.90
3816;DHT22;1923;48.154;11.536;2023-02-28T08:48:24;-0.40;99.90
3816;DHT22;1923;48.154;11.536;2023-02-28T08:50:56;-0.40;99.90
3816;DHT22;1923;48.154;11.536;2023-02-28T08:53:33;-0.40;99.90
3816;DHT22;1923;48.154;11.536;2023-02-28T08:56:03;-0.30;99.90
3816;DHT22;1923;48.154;11.536;2023-02-28T08:58:31;-0.30;99.90
3816;DHT22;1923;48.154;11.536;2023-02-28T09:01:07;-0.40;99.90
3816;DHT22;1923;48.154;11.536;2023-02-28T09:03:37;-0.60;99.90
3816;DHT22;1923;48.154;11.536;2023-02-28T09:06:05;-0.30;99.90
3816;DHT22;1923;48.154;11.536;2023-02-28T09:08:33;-0.30;99.90
3816;DHT22;1923;48.154;11.536;2023-02-28T09:11:02;-0.30;99.90
3816;DHT22;1923;48.154;11.536;2023-02-28T09:13:30;-0.20;99.90
3816;DHT22;1923;48.154;11.536;2023-02-28T09:16:02;-0.30;99.90
3816;DHT22;1923;48.154;11.536;2023-02-28T09:18:31;-0.20;99.90
3816;DHT22;1923;48.154;11.536;2023-02-28T09:20:59;-0.20;99.90
3816;DHT22;1923;48.154;11.536;2023-02-28T09:23:30;-0.20;99.90
3816;DHT22;1923;48.154;11.536;2023-02-28T09:25:58;-0.20;99.90
3816;DHT22;1923;48.154;11.536;2023-02-28T09:28:26;0.00;99.90
3816;DHT22;1923;48.154;11.536;2023-02-28T09:30:54;0.10;99.90
3816;DHT22;1923;48.154;11.536;2023-02-28T09:33:26;0.10;99.90
3816;DHT22;1923;48.154;11.536;2023-02-28T09:35:58;0.10;99.90
3816;DHT22;1923;48.154;11.536;2023-02-28T09:38:29;0.00;99.90
3816;DHT22;1923;48.154;11.536;2023-02-28T09:41:00;-0.40;99.90
3816;DHT22;1923;48.154;11.536;2023-02-28T09:43:33;-0.10;99.90
3816;DHT22;1923;48.154;11.536;2023-02-28T09:46:08;-0.10;99.90
3816;DHT22;1923;48.154;11.536;2023-02-28T09:48:41;-0.10;99.90
3816;DHT22;1923;48.154;11.536;2023-02-28T09:51:23;-0.10;99.90
3816;DHT22;1923;48.154;11.536;2023-02-28T09:53:55;0.00;99.90
3816;DHT22;1923;48.154;11.536;2023-02-28T09:56:33;-0.10;99.90
3816;DHT22;1923;48.154;11.536;2023-02-28T09:59:11;0.20;99.90
3816;DHT22;1923;48.154;11.536;2023-02-28T10:01:47;0.30;99.90
3816;DHT22;1923;48.154;11.536;2023-02-28T10:04:37;0.40;99.90
3816;DHT22;1923;48.154;11.536;2023-02-28T10:07:16;0.50;99.90
3816;DHT22;1923;48.154;11.536;2023-02-28T10:09:48;0.60;99.90
3816;DHT22;1923;48.154;11.536;2023-02-28T10:12:20;0.60;99.90
3816;DHT22;1923;48.154;11.536;2023-02-28T10:14:51;1.00;99.90
3816;DHT22;1923;48.154;11.536;2023-02-28T10:17:23;1.20;99.90
3816;DHT22;1923;48.154;11.536;2023-02-28T10:20:00;1.50;99.90
3816;DHT22;1923;48.154;11.536;2023-02-28T10:22:40;1.20;99.90
3816;DHT22;1923;48.154;11.536;2023-02-28T10:25:18;1.30;99.90
3816;DHT22;1923;48.154;11.536;2023-02-28T10:27:46;1.20;99.90
3816;DHT22;1923;48.154;11.536;2023-02-28T10:30:15;1.30;99.90
3816;DHT22;1923;48.154;11.536;2023-02-28T10:32:47;1.40;99.90
3816;DHT22;1923;48.154;11.536;2023-02-28T10:35:18;1.50;99.90
3816;DHT22;1923;48.154;11.536;2023-02-28T10:37:49;1.70;99.90
3816;DHT22;1923;48.154;11.536;2023-02-28T10:40:29;2.00;99.90
3816;DHT22;1923;48.154;11.536;2023-02-28T10:43:00;2.30;99.90
3816;DHT22;1923;48.154;11.536;2023-02-28T10:45:30;2.40;99.90
3816;DHT22;1923;48.154;11.536;2023-02-28T10:48:02;2.60;99.90
3816;DHT22;1923;48.154;11.536;2023-02-28T10:50:36;2.60;99.90
3816;DHT22;1923;48.154;11.536;2023-02-28T10:53:20;2.20;99.90
3816;DHT22;1923;48.154;11.536;2023-02-28T10:55:57;2.20;99.90
3816;DHT22;1923;48.154;11.536;2023-02-28T10:58:27;1.90;99.90
3816;DHT22;1923;48.154;11.536;2023-02-28T11:00:57;2.10;99.90
3816;DHT22;1923;48.154;11.536;2023-02-28T11:03:31;2.20;99.90
3816;DHT22;1923;48.154;11.536;2023-02-28T11:06:07;2.10;99.90
3816;DHT22;1923;48.154;11.536;2023-02-28T11:08:44;2.40;99.90
3816;DHT22;1923;48.154;11.536;2023-02-28T11:11:14;2.60;99.90
3816;DHT22;1923;48.154;11.536;2023-02-28T11:13:45;2.60;99.90
3816;DHT22;1923;48.154;11.536;2023-02-28T11:16:14;2.50;99.90
3816;DHT22;1923;48.154;11.536;2023-02-28T11:18:48;2.20;99.90
3816;DHT22;1923;48.154;11.536;2023-02-28T11:21:20;2.00;99.90
3816;DHT22;1923;48.154;11.536;2023-02-28T11:23:52;2.30;99.90
3816;DHT22;1923;48.154;11.536;2023-02-28T11:26:40;2.20;99.90
3816;DHT22;1923;48.154;11.536;2023-02-28T11:29:18;2.50;99.90
3816;DHT22;1923;48.154;11.536;2023-02-28T11:32:03;3.00;99.90
3816;DHT22;1923;48.154;11.536;2023-02-28T11:34:32;3.20;99.90
3816;DHT22;1923;48.154;11.536;2023-02-28T11:37:02;3.00;99.90
3816;DHT22;1923;48.154;11.536;2023-02-28T11:39:32;2.60;99.90
3816;DHT22;1923;48.154;11.536;2023-02-28T11:42:34;2.40;99.90
3816;DHT22;1923;48.154;11.536;2023-02-28T11:45:14;2.30;99.90
3816;DHT22;1923;48.154;11.536;2023-02-28T11:47:48;2.00;99.90
3816;DHT22;1923;48.154;11.536;2023-02-28T11:50:42;2.10;99.90
3816;DHT22;1923;48.154;11.536;2023-02-28T11:53:22;2.20;99.90
3816;DHT22;1923;48.154;11.536;2023-02-28T11:55:59;2.20;99.90
3816;DHT22;1923;48.154;11.536;2023-02-28T11:58:44;2.10;99.90
3816;DHT22;1923;48.154;11.536;2023-02-28T12:01:30;2.10;99.90
3816;DHT22;1923;48.154;11.536;2023-02-28T12:04:14;2.20;99.90
3816;DHT22;1923;48.154;11.536;2023-02-28T12:06:50;2.10;99.90
3816;DHT22;1923;48.154;11.536;2023-02-28T12:09:38;2.30;99.90
3816;DHT22;1923;48.154;11.536;2023-02-28T12:12:18;2.10;99.90
3816;DHT22;1923;48.154;11.536;2023-02-28T12:15:05;2.40;99.90
3816;DHT22;1923;48.154;11.536;2023-02-28T12:17:55;2.60;99.90
3816;DHT22;1923;48.154;11.536;2023-02-28T12:20:32;2.80;99.90
3816;DHT22;1923;48.154;11.536;2023-02-28T12:23:19;2.90;99.90
3816;DHT22;1923;48.154;11.536;2023-02-28T12:26:02;2.80;99.90
3816;DHT22;1923;48.154;11.536;2023-02-28T12:28:35;2.70;99.90
3816;DHT22;1923;48.154;11.536;2023-02-28T12:31:09;2.60;99.90
3816;DHT22;1923;48.154;11.536;2023-02-28T12:33:44;2.60;99.90
3816;DHT22;1923;48.154;11.536;2023-02-28T12:36:16;2.60;99.90
3816;DHT22;1923;48.154;11.536;2023-02-28T12:38:50;2.60;99.90
3816;DHT22;1923;48.154;11.536;2023-02-28T12:41:28;2.60;99.90
3816;DHT22;1923;48.154;11.536;2023-02-28T12:44:01;2.70;99.90
3816;DHT22;1923;48.154;11.536;2023-02-28T12:46:33;2.90;99.90
3816;DHT22;1923;48.154;11.536;2023-02-28T12:49:08;2.70;99.90
3816;DHT22;1923;48.154;11.536;2023-02-28T12:51:38;2.80;99.90
3816;DHT22;1923;48.154;11.536;2023-02-28T12:54:12;2.70;99.90
3816;DHT22;1923;48.154;11.536;2023-02-28T12:56:49;2.70;99.90
3816;DHT22;1923;48.154;11.536;2023-02-28T12:59:25;2.70;99.90
3816;DHT22;1923;48.154;11.536;2023-02-28T13:02:30;2.70;99.90
3816;DHT22;1923;48.154;11.536;2023-02-28T13:05:24;2.80;99.90
3816;DHT22;1923;48.154;11.536;2023-02-28T13:08:21;2.70;99.90
3816;DHT22;1923;48.154;11.536;2023-02-28T13:10:54;2.70;99.90
3816;DHT22;1923;48.154;11.536;2023-02-28T13:13:25;2.60;99.90
3816;DHT22;1923;48.154;11.536;2023-02-28T13:16:02;2.60;99.90
3816;DHT22;1923;48.154;11.536;2023-02-28T13:18:34;2.70;99.90
3816;DHT22;1923;48.154;11.536;2023-02-28T13:21:06;2.80;99.90
3816;DHT22;1923;48.154;11.536;2023-02-28T13:23:40;2.90;99.90
3816;DHT22;1923;48.154;11.536;2023-02-28T13:26:09;3.20;99.90
3816;DHT22;1923;48.154;11.536;2023-02-28T13:32:32;3.20;99.90
3816;DHT22;1923;48.154;11.536;2023-02-28T13:35:36;3.60;99.90
3816;DHT22;1923;48.154;11.536;2023-02-28T13:44:03;3.70;99.90
3816;DHT22;1923;48.154;11.536;2023-02-28T13:46:32;3.40;99.90
3816;DHT22;1923;48.154;11.536;2023-02-28T13:49:20;3.40;99.90
3816;DHT22;1923;48.154;11.536;2023-02-28T13:51:52;3.30;99.90
3816;DHT22;1923;48.154;11.536;2023-02-28T13:54:36;3.40;99.90
3816;DHT22;1923;48.154;11.536;2023-02-28T13:57:19;3.80;99.90
3816;DHT22;1923;48.154;11.536;2023-02-28T13:59:55;3.90;99.90
3816;DHT22;1923;48.154;11.536;2023-02-28T14:02:39;3.80;99.90
3816;DHT22;1923;48.154;11.536;2023-02-28T14:05:15;3.70;99.90
3816;DHT22;1923;48.154;11.536;2023-02-28T14:07:46;3.60;99.90
3816;DHT22;1923;48.154;11.536;2023-02-28T14:10:24;3.70;99.90
3816;DHT22;1923;48.154;11.536;2023-02-28T14:13:03;3.40;99.90
3816;DHT22;1923;48.154;11.536;2023-02-28T14:15:43;3.40;99.90
3816;DHT22;1923;48.154;11.536;2023-02-28T14:18:20;3.50;99.90
3816;DHT22;1923;48.154;11.536;2023-02-28T14:20:57;3.60;99.90
3816;DHT22;1923;48.154;11.536;2023-02-28T14:26:48;3.70;99.90
3816;DHT22;1923;48.154;11.536;2023-02-28T14:32:25;3.40;99.90
3816;DHT22;1923;48.154;11.536;2023-02-28T14:35:01;3.30;99.90
3816;DHT22;1923;48.154;11.536;2023-02-28T14:37:36;3.30;99.90
3816;DHT22;1923;48.154;11.536;2023-02-28T14:40:12;3.30;99.90
3816;DHT22;1923;48.154;11.536;2023-02-28T14:42:47;3.20;99.90
3816;DHT22;1923;48.154;11.536;2023-02-28T14:45:20;3.10;99.90
3816;DHT22;1923;48.154;11.536;2023-02-28T14:47:49;3.10;99.90
3816;DHT22;1923;48.154;11.536;2023-02-28T14:50:19;3.10;99.90
3816;DHT22;1923;48.154;11.536;2023-02-28T14:52:50;3.10;99.90
3816;DHT22;1923;48.154;11.536;2023-02-28T14:55:23;3.10;99.90
3816;DHT22;1923;48.154;11.536;2023-02-28T14:57:53;3.10;99.90
3816;DHT22;1923;48.154;11.536;2023-02-28T15:00:25;3.10;99.90
3816;DHT22;1923;48.154;11.536;2023-02-28T15:02:54;3.10;99.90
3816;DHT22;1923;48.154;11.536;2023-02-28T15:05:28;3.10;99.90
3816;DHT22;1923;48.154;11.536;2023-02-28T15:08:12;3.10;99.90
3816;DHT22;1923;48.154;11.536;2023-02-28T15:10:42;3.00;99.90
3816;DHT22;1923;48.154;11.536;2023-02-28T15:13:13;3.10;99.90
3816;DHT22;1923;48.154;11.536;2023-02-28T15:15:45;3.10;99.90
3816;DHT22;1923;48.154;11.536;2023-02-28T15:18:36;3.10;99.90
3816;DHT22;1923;48.154;11.536;2023-02-28T15:21:07;3.10;99.90
3816;DHT22;1923;48.154;11.536;2023-02-28T15:23:37;3.20;99.90
3816;DHT22;1923;48.154;11.536;2023-02-28T15:26:06;3.20;99.90
3816;DHT22;1923;48.154;11.536;2023-02-28T15:28:34;3.20;99.90
3816;DHT22;1923;48.154;11.536;2023-02-28T15:31:19;3.30;99.90
3816;DHT22;1923;48.154;11.536;2023-02-28T15:33:53;3.20;99.90
3816;DHT22;1923;48.154;11.536;2023-02-28T15:36:25;3.20;99.90
3816;DHT22;1923;48.154;11.536;2023-02-28T15:38:56;3.10;99.90
3816;DHT22;1923;48.154;11.536;2023-02-28T15:41:41;3.30;99.90
3816;DHT22;1923;48.154;11.536;2023-02-28T15:44:25;3.40;99.90
3816;DHT22;1923;48.154;11.536;2023-02-28T15:46:59;3.20;99.90
3816;DHT22;1923;48.154;11.536;2023-02-28T15:49:33;3.20;99.90
3816;DHT22;1923;48.154;11.536;2023-02-28T15:52:14;3.20;99.90
3816;DHT22;1923;48.154;11.536;2023-02-28T15:54:46;3.30;99.90
3816;DHT22;1923;48.154;11.536;2023-02-28T15:57:17;3.30;99.90
3816;DHT22;1923;48.154;11.536;2023-02-28T15:59:51;3.30;99.90
3816;DHT22;1923;48.154;11.536;2023-02-28T16:02:22;3.20;99.90
3816;DHT22;1923;48.154;11.536;2023-02-28T16:05:12;3.30;99.90
3816;DHT22;1923;48.154;11.536;2023-02-28T16:07:44;3.40;99.90
3816;DHT22;1923;48.154;11.536;2023-02-28T16:10:15;3.60;99.90
3816;DHT22;1923;48.154;11.536;2023-02-28T16:12:43;3.50;99.90
3816;DHT22;1923;48.154;11.536;2023-02-28T16:15:18;3.50;99.90
3816;DHT22;1923;48.154;11.536;2023-02-28T16:17:46;3.50;99.90
3816;DHT22;1923;48.154;11.536;2023-02-28T16:20:17;3.40;99.90
3816;DHT22;1923;48.154;11.536;2023-02-28T16:22:46;3.50;99.90
3816;DHT22;1923;48.154;11.536;2023-02-28T16:25:17;3.50;99.90
3816;DHT22;1923;48.154;11.536;2023-02-28T16:27:47;3.50;99.90
3816;DHT22;1923;48.154;11.536;2023-02-28T16:30:20;3.50;99.90
3816;DHT22;1923;48.154;11.536;2023-02-28T16:32:50;3.40;99.90
3816;DHT22;1923;48.154;11.536;2023-02-28T16:35:19;3.20;99.90
3816;DHT22;1923;48.154;11.536;2023-02-28T16:37:47;3.20;99.90
3816;DHT22;1923;48.154;11.536;2023-02-28T16:40:19;3.20;99.90
3816;DHT22;1923;48.154;11.536;2023-02-28T16:42:49;3.10;99.90
3816;DHT22;1923;48.154;11.536;2023-02-28T16:45:20;3.10;99.90
3816;DHT22;1923;48.154;11.536;2023-02-28T16:47:49;2.90;99.90